createdAt,value
2022-09-23T00:01:07.639Z,8.2
2022-09-23T00:03:09.612Z,9.2
2022-09-23T00:05:15.041Z,7.7
2022-09-23T00:07:17.180Z,7.1
2022-09-23T00:09:19.347Z,7
2022-09-23T00:11:21.538Z,8.6
2022-09-23T00:13:23.692Z,7.4
2022-09-23T00:15:25.841Z,8.4
2022-09-23T00:17:28.068Z,7.2
2022-09-23T00:19:33.407Z,8.1
2022-09-23T00:23:37.701Z,8.8
2022-09-23T00:25:39.879Z,10.1
2022-09-23T00:27:42.029Z,7.9
2022-09-23T00:29:44.175Z,5.5
2022-09-23T00:31:46.329Z,4.8
2022-09-23T00:33:51.739Z,5.9
2022-09-23T00:35:53.905Z,5.3
2022-09-23T00:42:00.378Z,5.1
2022-09-23T00:44:02.521Z,5.5
2022-09-23T00:46:04.704Z,6.1
2022-09-23T00:48:10.038Z,6.3
2022-09-23T00:50:12.199Z,7.2
2022-09-23T00:52:14.356Z,5.2
2022-09-23T00:53:17.017Z,5.6
2022-09-23T00:55:19.362Z,4.9
2022-09-23T00:57:21.342Z,5.4
2022-09-23T00:59:23.543Z,4.7
2022-09-23T01:01:29.002Z,6.4
2022-09-23T01:03:31.066Z,6.6
2022-09-23T01:05:33.334Z,6.2
2022-09-23T01:07:35.366Z,5.1
2022-09-23T01:09:37.523Z,5.7
2022-09-23T01:11:39.669Z,4.3
2022-09-23T01:13:41.792Z,4.7
2022-09-23T01:15:47.179Z,5.6
2022-09-23T01:17:49.339Z,4.8
2022-09-23T01:19:51.491Z,5.1
2022-09-23T01:21:53.653Z,3.6
2022-09-23T01:23:55.787Z,5.3
2022-09-23T01:25:57.926Z,4.5
2022-09-23T01:28:00.080Z,4.2
2022-09-23T01:30:05.474Z,4.7
2022-09-23T01:32:07.616Z,4.4
2022-09-23T01:34:09.790Z,4.9
2022-09-23T01:36:11.931Z,4.9
2022-09-23T01:38:14.060Z,4.9
2022-09-23T01:40:16.266Z,5.2
2022-09-23T01:42:18.377Z,5.1
2022-09-23T01:44:23.738Z,5.1
2022-09-23T01:46:25.906Z,4.5
2022-09-23T01:48:28.075Z,4
2022-09-23T01:53:35.044Z,3.8
2022-09-23T01:55:37.163Z,3.3
2022-09-23T02:01:46.935Z,4.1
2022-09-23T02:03:49.003Z,5
2022-09-23T02:05:51.168Z,3.8
2022-09-23T02:07:53.310Z,4.7
2022-09-23T02:12:00.819Z,4.3
2022-09-23T02:14:02.986Z,4.8
2022-09-23T02:16:05.108Z,4.8
2022-09-23T02:18:07.260Z,4.1
2022-09-23T02:20:09.386Z,4.7
2022-09-23T02:22:11.544Z,4.4
2022-09-23T02:24:13.668Z,4
2022-09-23T02:26:19.037Z,5.1
2022-09-23T02:28:21.180Z,4.4
2022-09-23T02:30:23.328Z,4.6
2022-09-23T02:34:27.574Z,4.1
2022-09-23T02:36:29.720Z,3.8
2022-09-23T02:38:31.880Z,3.7
2022-09-23T02:40:37.324Z,4.1
2022-09-23T02:42:39.399Z,4.5
2022-09-23T02:44:41.523Z,4.4
2022-09-23T02:45:44.242Z,6.1
2022-09-23T02:47:46.350Z,7
2022-09-23T02:49:48.503Z,5.3
2022-09-23T02:51:50.655Z,4.7
2022-09-23T02:53:56.023Z,5.9
2022-09-23T02:55:58.166Z,5.8
2022-09-23T02:58:00.316Z,5.8
2022-09-23T03:02:04.619Z,6.2
2022-09-23T03:04:06.674Z,6.2
2022-09-23T03:06:08.808Z,5.6
2022-09-23T03:10:16.337Z,5.8
2022-09-23T03:12:18.429Z,6.9
2022-09-23T03:14:20.569Z,8.6
2022-09-23T03:16:22.788Z,7.8
2022-09-23T03:18:24.813Z,7.3
2022-09-23T03:20:26.941Z,6.7
2022-09-23T03:22:32.322Z,7.9
2022-09-23T03:26:36.591Z,6.6
2022-09-23T03:28:38.701Z,6
2022-09-23T03:30:40.818Z,5.6
2022-09-23T03:32:42.963Z,4.8
2022-09-23T03:34:45.102Z,5.4
2022-09-23T03:36:50.439Z,6.2
2022-09-23T03:38:52.574Z,5.6
2022-09-23T03:40:54.780Z,5.7
2022-09-23T03:43:23.660Z,6.9
2022-09-23T03:45:25.830Z,5.7
2022-09-23T03:47:27.898Z,5.4
2022-09-23T03:49:33.257Z,4.9
2022-09-23T03:51:35.441Z,5.3
2022-09-23T03:53:37.528Z,6.3
2022-09-23T03:55:39.659Z,5.6
2022-09-23T03:57:41.780Z,5.3
2022-09-23T03:59:43.893Z,5.7
2022-09-23T04:01:46.196Z,6.7
2022-09-23T04:03:51.392Z,5.1
2022-09-23T04:05:53.514Z,5.6
2022-09-23T04:07:55.643Z,5.5
2022-09-23T04:09:57.779Z,5.3
2022-09-23T04:11:59.879Z,5.5
2022-09-23T04:16:04.206Z,6
2022-09-23T04:18:09.518Z,5.3
2022-09-23T04:20:11.613Z,5.5
2022-09-23T04:22:13.784Z,6
2022-09-23T04:24:15.879Z,4.7
2022-09-23T04:26:17.993Z,5.9
2022-09-23T04:30:22.242Z,6.5
2022-09-23T04:32:27.582Z,5.4
2022-09-23T04:34:29.720Z,6.1
2022-09-23T04:37:36.083Z,6.3
2022-09-23T04:39:38.171Z,5.2
2022-09-23T04:41:40.298Z,5.2
2022-09-23T04:43:42.437Z,6.2
2022-09-23T04:45:47.789Z,6.1
2022-09-23T04:47:49.933Z,6.3
2022-09-23T04:49:54.617Z,6.2
2022-09-23T04:51:54.183Z,6.4
2022-09-23T04:53:56.343Z,7.5
2022-09-23T04:55:58.440Z,5.7
2022-09-23T04:58:00.560Z,6.4
2022-09-23T05:00:05.941Z,7.2
2022-09-23T05:02:08.166Z,6.4
2022-09-23T05:04:10.189Z,6.1
2022-09-23T05:06:12.319Z,6.4
2022-09-23T05:10:16.547Z,6
2022-09-23T05:12:18.669Z,6.4
2022-09-23T05:14:24.001Z,7.1
2022-09-23T05:16:26.256Z,7.2
2022-09-23T05:18:28.240Z,6.2
2022-09-23T05:20:30.364Z,6.6
2022-09-23T05:26:36.728Z,7.3
2022-09-23T05:28:42.106Z,6.9
2022-09-23T05:30:44.264Z,5.8
2022-09-23T05:33:49.007Z,5.9
2022-09-23T05:35:51.164Z,6.6
2022-09-23T05:37:53.275Z,7
2022-09-23T05:39:55.380Z,6.7
2022-09-23T05:42:00.749Z,7.2
2022-09-23T05:44:02.897Z,6.8
2022-09-23T05:46:08.116Z,5.5
2022-09-23T05:48:07.170Z,6.6
2022-09-23T05:50:09.381Z,6.9
2022-09-23T05:52:11.441Z,6.1
2022-09-23T05:54:13.549Z,7.1
2022-09-23T05:56:18.919Z,6.9
2022-09-23T05:58:21.044Z,6.7
2022-09-23T06:00:23.170Z,7.4
2022-09-23T06:02:25.369Z,8.5
2022-09-23T06:04:27.450Z,7
2022-09-23T06:10:37.078Z,8
2022-09-23T06:14:41.342Z,7.5
2022-09-23T06:16:43.476Z,8.2
2022-09-23T06:18:45.627Z,7.2
2022-09-23T06:20:47.743Z,7.9
2022-09-23T06:22:53.653Z,7.5
2022-09-23T06:24:55.234Z,9.1
2022-09-23T06:26:57.366Z,6.9
2022-09-23T06:28:59.503Z,8
2022-09-23T06:30:02.202Z,8.5
2022-09-23T06:32:04.347Z,8
2022-09-23T06:34:10.925Z,7.5
2022-09-23T06:36:08.630Z,8.3
2022-09-23T06:38:13.991Z,7.5
2022-09-23T06:40:16.196Z,7.5
2022-09-23T06:42:18.296Z,7.9
2022-09-23T06:44:20.478Z,8
2022-09-23T06:46:22.679Z,8.3
2022-09-23T06:48:24.809Z,7.2
2022-09-23T06:50:26.962Z,8
2022-09-23T06:52:32.342Z,9.3
2022-09-23T06:54:34.484Z,8.6
2022-09-23T06:56:39.340Z,10
2022-09-23T06:58:38.802Z,9.7
2022-09-23T07:00:40.949Z,9.6
2022-09-23T07:02:43.215Z,8.5
2022-09-23T07:04:45.239Z,9.2
2022-09-23T07:08:52.798Z,8.6
2022-09-23T07:10:54.953Z,9.3
2022-09-23T07:12:57.135Z,8.1
2022-09-23T07:19:03.630Z,8.2
2022-09-23T07:23:11.203Z,9.8
2022-09-23T07:25:13.360Z,9.8
2022-09-23T07:27:42.324Z,9.6
2022-09-23T07:29:48.823Z,9.2
2022-09-23T07:31:46.731Z,9.3
2022-09-23T07:33:52.123Z,10
2022-09-23T07:35:54.297Z,9.1
2022-09-23T07:39:58.644Z,9.6
2022-09-23T07:42:00.821Z,9
2022-09-23T07:44:02.990Z,8.6
2022-09-23T07:46:05.257Z,9.2
2022-09-23T07:50:12.769Z,14.1
2022-09-23T07:52:14.984Z,14.3
2022-09-23T07:54:17.172Z,10.2
2022-09-23T07:56:19.360Z,10.3
2022-09-23T07:58:21.541Z,9.8
2022-09-23T08:00:23.719Z,9.8
2022-09-23T08:02:29.186Z,8.1
2022-09-23T08:04:31.364Z,8.3
2022-09-23T08:06:33.547Z,7.9
2022-09-23T08:08:35.765Z,8
2022-09-23T08:10:37.956Z,8.6
2022-09-23T08:14:42.223Z,8.9
2022-09-23T08:20:51.992Z,8.2
2022-09-23T08:21:54.747Z,9.4
2022-09-23T08:23:56.914Z,9.3
2022-09-23T08:25:59.627Z,8.2
2022-09-23T08:28:01.300Z,8
2022-09-23T08:30:06.761Z,8.5
2022-09-23T08:32:08.957Z,8.3
2022-09-23T08:34:11.198Z,9.3
2022-09-23T08:36:13.381Z,8.4
2022-09-23T08:38:15.563Z,8.3
2022-09-23T08:44:25.447Z,9.1
2022-09-23T08:46:27.698Z,8.4
2022-09-23T08:48:29.872Z,9.5
2022-09-23T08:50:32.070Z,7.5
2022-09-23T08:52:34.279Z,7.7
2022-09-23T08:54:36.478Z,8
2022-09-23T08:58:43.983Z,6.7
2022-09-23T09:00:46.076Z,7.6
2022-09-23T09:06:54.004Z,6.4
2022-09-23T09:08:54.514Z,7.1
2022-09-23T09:10:56.630Z,6.4
2022-09-23T09:15:03.992Z,5.6
2022-09-23T09:17:06.115Z,6.9
2022-09-23T09:18:08.716Z,7.1
2022-09-23T09:22:12.957Z,5.7
2022-09-23T09:24:15.085Z,6.8
2022-09-23T09:26:20.330Z,6.2
2022-09-23T09:28:22.482Z,7.2
2022-09-23T09:30:24.559Z,6.4
2022-09-23T09:32:26.715Z,5.9
2022-09-23T09:34:28.800Z,5.6
2022-09-23T09:36:31.029Z,6.5
2022-09-23T09:38:33.045Z,6.7
2022-09-23T09:40:38.432Z,5
2022-09-23T09:42:40.466Z,6.6
2022-09-23T09:44:42.568Z,4.6
2022-09-23T09:46:44.747Z,4.4
2022-09-23T09:48:46.790Z,5
2022-09-23T09:50:48.919Z,4.8
2022-09-23T09:52:50.990Z,5.4
2022-09-23T09:54:56.297Z,4.8
2022-09-23T09:56:58.395Z,4.4
2022-09-23T09:59:00.574Z,4.4
2022-09-23T10:01:02.661Z,3.9
2022-09-23T10:03:04.765Z,4.6
2022-09-23T10:05:06.882Z,4.2
2022-09-23T10:07:09.047Z,3.1
2022-09-23T10:09:14.266Z,2.8
2022-09-23T10:11:16.377Z,2.9
2022-09-23T10:13:18.508Z,2.7
2022-09-23T10:16:23.327Z,2.2
2022-09-23T10:18:25.369Z,2.4
2022-09-23T10:20:27.536Z,2.7
2022-09-23T10:22:32.761Z,2.5
2022-09-23T10:24:34.904Z,2.1
2022-09-23T10:26:36.991Z,2.4
2022-09-23T10:28:39.141Z,4.2
2022-09-23T10:30:42.866Z,2.4
2022-09-23T10:32:44.907Z,3.3
2022-09-23T10:34:47.034Z,2.5
2022-09-23T10:36:52.298Z,2.6
2022-09-23T10:40:56.696Z,2.2
2022-09-23T10:45:00.777Z,2.4
2022-09-23T10:47:02.912Z,2.1
2022-09-23T10:49:05.049Z,2
2022-09-23T10:51:10.301Z,2.4
2022-09-23T10:53:12.437Z,2.3
2022-09-23T10:55:14.561Z,2.2
2022-09-23T10:57:16.682Z,1.7
2022-09-23T10:59:18.804Z,2
2022-09-23T11:01:20.957Z,2.5
2022-09-23T11:03:23.047Z,1.5
2022-09-23T11:05:28.312Z,2.2
2022-09-23T11:09:32.593Z,1.8
2022-09-23T11:12:01.268Z,2.1
2022-09-23T11:14:03.385Z,2
2022-09-23T11:16:05.493Z,1.6
2022-09-23T11:18:10.765Z,2.4
2022-09-23T11:20:13.024Z,1.9
2022-09-23T11:22:15.001Z,2.5
2022-09-23T11:24:17.138Z,2.2
2022-09-23T11:30:23.529Z,1.9
2022-09-23T11:32:28.770Z,2.7
2022-09-23T11:34:30.880Z,3
2022-09-23T11:36:33.002Z,3.3
2022-09-23T11:38:35.115Z,5.3
2022-09-23T11:40:40.956Z,3
2022-09-23T11:42:39.354Z,2.4
2022-09-23T11:44:41.494Z,2.3
2022-09-23T11:46:46.753Z,2.5
2022-09-23T11:48:48.886Z,2.6
2022-09-23T11:50:50.998Z,2.3
2022-09-23T11:52:53.122Z,2.4
2022-09-23T11:54:55.329Z,2.7
2022-09-23T11:56:57.346Z,2.3
2022-09-23T11:58:59.986Z,1.9
2022-09-23T12:01:04.760Z,2.8
2022-09-23T12:03:07.027Z,2.4
2022-09-23T12:05:09.137Z,2.1
2022-09-23T12:06:11.623Z,2.8
2022-09-23T12:08:13.749Z,1.9
2022-09-23T12:10:15.891Z,1.7
2022-09-23T12:12:17.998Z,2
2022-09-23T12:14:23.265Z,2.3
2022-09-23T12:16:25.444Z,2.2
2022-09-23T12:24:33.894Z,2.1
2022-09-23T12:30:43.485Z,2.5
2022-09-23T12:32:45.488Z,2.9
2022-09-23T12:47:03.485Z,2.7
2022-09-23T12:49:05.599Z,2.4
2022-09-23T12:51:07.735Z,2.5
2022-09-23T12:57:17.223Z,2.3
2022-09-23T13:02:24.331Z,2.4
2022-09-23T13:10:35.717Z,2.3
2022-09-23T13:14:39.981Z,2.5
2022-09-23T13:16:42.135Z,2.7
2022-09-23T13:18:44.223Z,2.1
2022-09-23T13:20:46.324Z,2.5
2022-09-23T13:22:48.418Z,2.3
2022-09-23T13:24:53.690Z,3
2022-09-23T13:26:55.810Z,2.3
2022-09-23T13:28:57.914Z,2.5
2022-09-23T13:31:00.303Z,2.2
2022-09-23T13:33:02.164Z,2.8
2022-09-23T13:35:04.283Z,1.9
2022-09-23T13:37:06.383Z,2.5
2022-09-23T13:39:11.659Z,3.6
2022-09-23T13:41:13.772Z,2.9
2022-09-23T13:43:15.885Z,3.5
2022-09-23T13:45:18.019Z,3.2
2022-09-23T13:47:20.150Z,2.7
2022-09-23T13:49:22.264Z,2.4
2022-09-23T13:51:24.375Z,2.9
2022-09-23T13:53:29.634Z,3.8
2022-09-23T13:55:31.756Z,2.5
2022-09-23T13:57:33.884Z,3.2
2022-09-23T13:58:36.515Z,3.3
2022-09-23T14:00:38.669Z,2.9
2022-09-23T14:02:40.765Z,3.1
2022-09-23T14:04:42.855Z,3.1
2022-09-23T14:06:48.134Z,3.7
2022-09-23T14:08:50.294Z,2.7
2022-09-23T14:10:52.392Z,3.8
2022-09-23T14:12:54.485Z,3.7
2022-09-23T14:14:56.579Z,3.1
2022-09-23T14:21:06.085Z,4.4
2022-09-23T14:23:08.215Z,5.1
2022-09-23T14:27:12.436Z,4.1
2022-09-23T14:29:14.567Z,4.7
2022-09-23T14:31:16.768Z,4.5
2022-09-23T14:33:18.796Z,4.8
2022-09-23T14:35:24.085Z,5.4
2022-09-23T14:39:28.308Z,5.9
2022-09-23T14:41:30.426Z,6.1
2022-09-23T14:43:32.539Z,6.3
2022-09-23T14:45:34.745Z,5.5
2022-09-23T14:47:36.802Z,7
2022-09-23T14:49:42.079Z,5.8
2022-09-23T14:51:44.189Z,6.3
2022-09-23T14:53:46.335Z,6.2
2022-09-23T14:56:14.993Z,6.1
2022-09-23T14:58:17.129Z,6.7
2022-09-23T15:02:24.522Z,6.6
2022-09-23T15:06:28.796Z,5.8
2022-09-23T15:08:30.913Z,5.8
2022-09-23T15:10:33.040Z,5.4
2022-09-23T15:12:35.157Z,5.9
2022-09-23T15:14:38.809Z,5
2022-09-23T15:16:42.711Z,5.8
2022-09-23T15:20:46.812Z,6.6
2022-09-23T15:24:51.071Z,6.7
2022-09-23T15:26:53.177Z,6.1
2022-09-23T15:28:55.323Z,5.4
2022-09-23T15:31:00.583Z,6.5
2022-09-23T15:33:02.704Z,5
2022-09-23T15:35:04.846Z,5
2022-09-23T15:37:06.955Z,5.7
2022-09-23T15:39:09.080Z,5.3
2022-09-23T15:41:11.243Z,5.4
2022-09-23T15:43:17.946Z,5.7
2022-09-23T15:45:18.619Z,5.4
2022-09-23T15:47:20.742Z,5.7
2022-09-23T15:49:22.874Z,5.3
2022-09-23T15:50:25.520Z,4.7
2022-09-23T15:52:27.649Z,5.6
2022-09-23T15:54:29.753Z,5.7
2022-09-23T15:56:31.887Z,4.6
2022-09-23T15:58:37.144Z,6
2022-09-23T16:00:39.301Z,5
2022-09-23T16:04:43.578Z,4.9
2022-09-23T16:06:45.665Z,6.2
2022-09-23T16:12:55.216Z,6
2022-09-23T16:14:57.317Z,17.1
2022-09-23T16:16:59.517Z,13.4
2022-09-23T16:19:01.567Z,6.9
2022-09-23T16:21:03.681Z,18.4
2022-09-23T16:23:07.377Z,5.6
2022-09-23T16:25:09.484Z,5
2022-09-23T16:27:14.738Z,5.3
2022-09-23T16:29:16.887Z,4.4
2022-09-23T16:31:19.091Z,4.7
2022-09-23T16:33:21.119Z,4.4
2022-09-23T16:35:23.249Z,5
2022-09-23T16:37:25.371Z,4.7
2022-09-23T16:39:27.495Z,4.6
2022-09-23T16:41:32.767Z,4.9
2022-09-23T16:43:34.903Z,4.9
2022-09-23T16:45:37.075Z,4.7
2022-09-23T16:46:39.680Z,4.1
2022-09-23T16:48:41.770Z,5.2
2022-09-23T16:50:43.885Z,5
2022-09-23T16:54:51.317Z,4
2022-09-23T16:56:53.430Z,4.8
2022-09-23T16:58:55.551Z,5.5
2022-09-23T17:00:57.729Z,3.6
2022-09-23T17:02:59.800Z,5.1
2022-09-23T17:05:01.958Z,5.9
2022-09-23T17:07:04.060Z,6.7
2022-09-23T17:09:09.404Z,5.4
2022-09-23T17:11:11.482Z,8.4
2022-09-23T17:13:13.604Z,5.8
2022-09-23T17:15:15.737Z,5
2022-09-23T17:17:17.858Z,5.2
2022-09-23T17:19:19.951Z,7.4
2022-09-23T17:21:22.139Z,6
2022-09-23T17:23:27.361Z,5.3
2022-09-23T17:27:31.633Z,10.7
2022-09-23T17:29:33.732Z,10.1
2022-09-23T17:31:35.925Z,9.3
2022-09-23T17:33:37.978Z,8.4
2022-09-23T17:35:40.135Z,8.1
2022-09-23T17:37:45.375Z,6.8
2022-09-23T17:39:47.510Z,6.7
2022-09-23T17:41:49.651Z,4.4
2022-09-23T17:44:54.390Z,5.7
2022-09-23T17:51:03.905Z,6.1
2022-09-23T17:53:06.036Z,5.4
2022-09-23T17:57:10.265Z,5.7
2022-09-23T17:59:12.416Z,5.2
2022-09-23T18:01:14.662Z,5.5
2022-09-23T18:03:16.663Z,7.9
2022-09-23T18:05:21.923Z,8
2022-09-23T18:07:24.049Z,6.8
2022-09-23T18:09:26.167Z,6.9
2022-09-23T18:11:28.288Z,6.7
2022-09-23T18:13:30.443Z,6
2022-09-23T18:15:32.552Z,6.9
2022-09-23T18:17:34.670Z,7.3
2022-09-23T18:19:39.933Z,6.9
2022-09-23T18:21:42.062Z,7.1
2022-09-23T18:23:44.205Z,8.7
2022-09-23T18:25:46.313Z,8
2022-09-23T18:27:48.437Z,9.5
2022-09-23T18:29:50.547Z,12.1
2022-09-23T18:31:52.835Z,10.5
2022-09-23T18:33:57.961Z,9.6
2022-09-23T18:36:00.093Z,10.3
2022-09-23T18:38:02.178Z,9.1
2022-09-23T18:42:33.017Z,9
2022-09-23T18:46:40.418Z,9.8
2022-09-23T18:48:42.551Z,11.1
2022-09-23T18:50:44.658Z,11
2022-09-23T18:52:46.765Z,11
2022-09-23T18:54:52.902Z,10.6
2022-09-23T18:56:51.014Z,10.5
2022-09-23T18:58:53.158Z,12.2
2022-09-23T19:00:58.475Z,12.4
2022-09-23T19:03:00.562Z,12
2022-09-23T19:05:02.681Z,12.7
2022-09-23T19:07:04.815Z,12.6
2022-09-23T19:09:06.942Z,12.7
2022-09-23T19:11:09.048Z,12.4
2022-09-23T19:15:16.545Z,14.7
2022-09-23T19:17:18.674Z,14.9
2022-09-23T19:23:25.035Z,12.5
2022-09-23T19:27:29.280Z,13
2022-09-23T19:29:34.603Z,15.9
2022-09-23T19:31:36.729Z,13.8
2022-09-23T19:33:38.830Z,15.9
2022-09-23T19:36:43.602Z,17.4
2022-09-23T19:38:45.733Z,16.2
2022-09-23T19:40:50.161Z,16.7
2022-09-23T19:42:53.182Z,15
2022-09-23T19:44:55.322Z,17.6
2022-09-23T19:46:57.691Z,16.3
2022-09-23T19:53:03.908Z,18.5
2022-09-23T19:55:06.125Z,19.2
2022-09-23T19:57:11.375Z,21.7
2022-09-23T19:59:18.361Z,20.9
2022-09-23T20:01:15.684Z,21.5
2022-09-23T20:03:17.741Z,21.5
2022-09-23T20:05:20.467Z,20.7
2022-09-23T20:07:22.185Z,19.1
2022-09-23T20:09:24.287Z,20.1
2022-09-23T20:11:29.546Z,24.2
2022-09-23T20:13:31.649Z,20.7
2022-09-23T20:15:33.793Z,21.1
2022-09-23T20:17:35.986Z,27.5
2022-09-23T20:19:38.092Z,22.6
2022-09-23T20:21:40.324Z,23.1
2022-09-23T20:23:42.492Z,24.4
2022-09-23T20:25:47.805Z,26.6
2022-09-23T20:27:49.901Z,26.2
2022-09-23T20:29:52.037Z,26
2022-09-23T20:30:54.752Z,23.5
2022-09-23T20:34:59.068Z,24.7
2022-09-23T20:37:01.179Z,24.8
2022-09-23T20:39:06.439Z,26.1
2022-09-23T20:41:08.569Z,26.5
2022-09-23T20:43:10.668Z,23.7
2022-09-23T20:45:12.787Z,26
2022-09-23T20:47:14.909Z,24
2022-09-23T20:49:17.012Z,26.4
2022-09-23T20:51:19.230Z,23.8
2022-09-23T20:53:24.680Z,25.4
2022-09-23T20:55:26.801Z,23.1
2022-09-23T20:57:28.903Z,24.8
2022-09-23T20:59:31.033Z,21.9
2022-09-23T21:01:33.288Z,24.3
2022-09-23T21:03:35.265Z,23.6
2022-09-23T21:05:37.370Z,21.8
2022-09-23T21:07:42.621Z,23.2
2022-09-23T21:09:44.754Z,20.3
2022-09-23T21:11:46.889Z,20.3
2022-09-23T21:13:48.988Z,23.6
2022-09-23T21:15:51.122Z,18.6
2022-09-23T21:17:53.250Z,20.7
2022-09-23T21:19:55.460Z,19.1
2022-09-23T21:22:00.836Z,18.2
2022-09-23T21:24:33.035Z,21.9
2022-09-23T21:26:05.036Z,18.8
2022-09-23T21:27:07.659Z,20
2022-09-23T21:31:12.002Z,19.2
2022-09-23T21:33:14.030Z,20.9
2022-09-23T21:35:19.395Z,17.8
2022-09-23T21:37:21.510Z,18.2
2022-09-23T21:39:23.606Z,18.8
2022-09-23T21:41:25.730Z,18.8
2022-09-23T21:43:27.835Z,19.1
2022-09-23T21:45:29.983Z,19.2
2022-09-23T21:47:32.169Z,17.5
2022-09-23T21:49:37.437Z,18.8
2022-09-23T21:51:39.538Z,19.1
2022-09-23T21:53:41.747Z,18.5
2022-09-23T21:55:43.843Z,18.2
2022-09-23T21:57:45.959Z,18.4
2022-09-23T21:59:48.202Z,16.1
2022-09-23T22:03:55.710Z,20.1
2022-09-23T22:05:57.758Z,17.2
2022-09-23T22:07:59.948Z,18.5
2022-09-23T22:12:04.323Z,20.6
2022-09-23T22:14:06.561Z,19.9
2022-09-23T22:16:10.204Z,20.6
2022-09-23T22:18:15.391Z,20.1
2022-09-23T22:20:17.521Z,17.2
2022-09-23T22:22:19.742Z,19.9
2022-09-23T22:24:48.482Z,19
2022-09-23T22:26:50.593Z,18.9
2022-09-23T22:28:52.676Z,19.6
2022-09-23T22:30:58.222Z,20.3
2022-09-23T22:33:00.044Z,18.9
2022-09-23T22:35:02.262Z,18.3
2022-09-23T22:37:04.354Z,19.2
2022-09-23T22:39:06.464Z,20.8
2022-09-23T22:41:08.597Z,20.1
2022-09-23T22:43:10.714Z,17.5
2022-09-23T22:45:16.047Z,19.4
2022-09-23T22:47:18.257Z,19.8
2022-09-23T22:49:20.402Z,19
2022-09-23T22:51:22.602Z,19.6
2022-09-23T22:53:24.842Z,20.5
2022-09-23T22:55:27.034Z,19.2
2022-09-23T22:57:29.144Z,22.9
2022-09-23T22:59:34.516Z,22.1
2022-09-23T23:01:36.775Z,21.6
2022-09-23T23:03:38.761Z,22.4
2022-09-23T23:05:40.821Z,19.2
2022-09-23T23:07:43.042Z,22.1
2022-09-23T23:09:45.175Z,22
2022-09-23T23:15:55.074Z,22.5
2022-09-23T23:17:57.094Z,23.7
2022-09-23T23:18:59.807Z,22.9
2022-09-23T23:21:02.037Z,24.8
2022-09-23T23:23:04.233Z,24.7
2022-09-23T23:25:06.393Z,25.4
2022-09-23T23:27:11.641Z,27.6
2022-09-23T23:29:13.849Z,24.9
2022-09-23T23:31:16.120Z,25.8
2022-09-23T23:33:18.259Z,27.1
2022-09-23T23:35:20.468Z,26.2
2022-09-23T23:37:22.590Z,28
2022-09-23T23:39:24.770Z,29
2022-09-23T23:41:29.959Z,29.1
2022-09-23T23:43:32.069Z,27.7
2022-09-23T23:45:34.184Z,28.2
2022-09-23T23:47:36.283Z,30.9
2022-09-23T23:49:38.405Z,29.1
2022-09-23T23:51:40.502Z,28.3
2022-09-23T23:53:42.603Z,30.4
2022-09-23T23:55:47.870Z,33.9
2022-09-23T23:57:50.115Z,31.6
2022-09-23T23:59:52.294Z,30.6
